Time;durP1;ratioP1;P1;durP2;ratioP2;P2;SDS_P1;SDS_P2;PMS_P1;PMS_P2;Temp;Humidity;BMP_temperature;BMP_pressure;BME280_temperature;BME280_humidity;BME280_pressure;Samples;Min_cycle;Max_cycle;Signal;HPM_P1;HPM_P2
2024/04/14 00:02:11;;;;;;;15.45;10.35;;;;;;;16.33;100.00;99308.28;5431095;26;20517;-64
2024/04/14 00:04:37;;;;;;;17.92;11.02;;;;;;;15.93;100.00;99302.03;5436650;26;20955;-64
2024/04/14 00:07:03;;;;;;;13.93;11.45;;;;;;;15.79;100.00;99298.25;5398388;26;20002;-64
2024/04/14 00:09:28;;;;;;;16.33;11.07;;;;;;;15.90;100.00;99300.56;5430113;26;20026;-64
2024/04/14 00:11:53;;;;;;;13.95;10.80;;;;;;;15.91;100.00;99294.31;5430235;26;19995;-64
2024/04/14 00:14:23;;;;;;;16.25;10.02;;;;;;;15.76;100.00;99262.69;5431298;26;20015;-64
2024/04/14 00:16:51;;;;;;;13.90;11.45;;;;;;;15.57;100.00;99290.00;5432137;26;19994;-64
2024/04/14 00:19:20;;;;;;;15.38;11.15;;;;;;;15.54;100.00;99279.00;5398965;26;19998;-64
2024/04/14 00:21:48;;;;;;;14.33;11.00;;;;;;;15.78;100.00;99293.97;5426040;26;20011;-64
2024/04/14 00:24:13;;;;;;;15.63;10.30;;;;;;;15.88;100.00;99285.97;5426466;26;20332;-64
2024/04/14 00:26:39;;;;;;;12.77;10.07;;;;;;;16.23;100.00;99290.09;5422267;26;20514;-64
2024/04/14 00:29:04;;;;;;;14.20;10.43;;;;;;;16.30;100.00;99298.94;5422685;26;20516;-64
2024/04/14 00:31:30;;;;;;;15.63;10.88;;;;;;;16.25;100.00;99287.31;5433104;26;19998;-64
2024/04/14 00:33:55;;;;;;;12.57;10.88;;;;;;;16.32;100.00;99301.41;5397445;26;20097;-64
2024/04/14 00:36:21;;;;;;;15.18;11.57;;;;;;;16.11;100.00;99288.75;5404518;26;20007;-64
2024/04/14 00:38:46;;;;;;;14.77;10.55;;;;;;;15.95;100.00;99289.56;5401534;26;20957;-64
2024/04/14 00:41:16;;;;;;;14.23;9.73;;;;;;;15.87;100.00;99276.47;5430043;26;20326;-64
2024/04/14 00:43:41;;;;;;;14.35;9.95;;;;;;;15.93;100.00;99281.06;5405397;26;20217;-63
2024/04/14 00:46:07;;;;;;;16.15;10.13;;;;;;;15.88;100.00;99281.56;5408639;26;20023;-64
2024/04/14 00:48:35;;;;;;;13.35;9.55;;;;;;;15.75;100.00;99274.16;5431468;26;20148;-64
2024/04/14 00:51:01;;;;;;;16.85;10.50;;;;;;;15.73;100.00;99275.25;5396574;26;19999;-64
2024/04/14 00:53:31;;;;;;;15.65;9.57;;;;;;;15.95;100.00;99279.91;5428605;26;20017;-63
2024/04/14 00:55:57;;;;;;;11.98;9.45;;;;;;;16.10;100.00;99281.91;5429556;26;20017;-63
2024/04/14 00:58:23;;;;;;;12.10;8.70;;;;;;;16.09;100.00;99275.81;5424266;26;19999;-64
2024/04/14 01:00:48;;;;;;;12.35;8.90;;;;;;;16.18;100.00;99265.34;5400536;26;20017;-64
2024/04/14 01:03:13;;;;;;;13.95;9.50;;;;;;;16.27;100.00;99272.22;5403754;26;19999;-63
2024/04/14 01:05:41;;;;;;;12.40;8.95;;;;;;;15.82;100.00;99242.84;5427494;26;20065;-64
2024/04/14 01:08:06;;;;;;;14.88;9.13;;;;;;;15.92;100.00;99277.63;5429313;26;20508;-64
2024/04/14 01:10:35;;;;;;;12.63;9.20;;;;;;;15.75;100.00;99270.69;5424552;26;20007;-64
2024/04/14 01:13:00;;;;;;;13.73;9.48;;;;;;;15.57;100.00;99237.56;5400176;26;20067;-64
2024/04/14 01:15:26;;;;;;;11.77;9.00;;;;;;;15.86;100.00;99267.78;5431832;26;20575;-64
2024/04/14 01:17:51;;;;;;;13.55;9.65;;;;;;;15.65;100.00;99275.25;5431320;26;20059;-64
2024/04/14 01:20:16;;;;;;;13.57;9.38;;;;;;;15.62;100.00;99263.28;5436933;26;20009;-64
2024/04/14 01:22:44;;;;;;;16.13;10.15;;;;;;;15.65;100.00;99264.78;5438903;26;20039;-64
2024/04/14 01:25:11;;;;;;;12.70;9.65;;;;;;;15.84;100.00;99248.75;5419472;26;20006;-64
2024/04/14 01:27:40;;;;;;;12.48;9.13;;;;;;;16.05;100.00;99265.81;5430147;26;20054;-64
2024/04/14 01:30:06;;;;;;;12.55;9.30;;;;;;;15.99;100.00;99266.47;5427861;26;20008;-64
2024/04/14 01:32:37;;;;;;;14.35;8.98;;;;;;;16.01;100.00;99259.25;5429581;26;20386;-64
2024/04/14 01:35:03;;;;;;;11.65;9.27;;;;;;;15.84;100.00;99235.63;5421679;26;20658;-63
2024/04/14 01:37:31;;;;;;;13.68;9.15;;;;;;;15.93;100.00;99226.81;5425437;26;20050;-64
2024/04/14 01:39:56;;;;;;;11.43;9.00;;;;;;;16.46;100.00;99271.03;5473669;26;20025;-63
2024/04/14 01:42:23;;;;;;;14.30;8.65;;;;;;;16.45;100.00;99272.03;5435721;26;20462;-63
2024/04/14 01:44:48;;;;;;;16.30;9.13;;;;;;;16.15;100.00;99232.34;5427995;26;20077;-64
2024/04/14 01:47:13;;;;;;;13.95;8.45;;;;;;;16.51;100.00;99260.84;5429004;26;20033;-63
2024/04/14 01:49:39;;;;;;;13.63;8.63;;;;;;;16.67;100.00;99267.88;5396882;26;20066;-64
2024/04/14 01:52:05;;;;;;;12.00;8.73;;;;;;;16.49;100.00;99239.22;5432710;26;19998;-64
2024/04/14 01:54:30;;;;;;;11.55;8.85;;;;;;;16.60;100.00;99251.97;5424775;26;20036;-64
2024/04/14 01:56:55;;;;;;;12.57;8.77;;;;;;;16.65;100.00;99267.25;5423947;26;20089;-64
2024/04/14 01:59:23;;;;;;;13.27;8.52;;;;;;;16.55;100.00;99254.28;5443385;26;20025;-64
2024/04/14 02:01:48;;;;;;;12.23;9.75;;;;;;;16.56;100.00;99261.19;5425513;26;19991;-64
2024/04/14 02:04:14;;;;;;;13.65;8.70;;;;;;;16.37;100.00;99227.41;5418507;26;19999;-64
2024/04/14 02:06:42;;;;;;;14.95;8.52;;;;;;;16.57;100.00;99254.13;5386025;26;20014;-64
2024/04/14 02:09:07;;;;;;;13.43;8.90;;;;;;;16.63;100.00;99262.16;5395903;26;20003;-63
2024/04/14 02:11:32;;;;;;;11.38;8.48;;;;;;;16.66;100.00;99260.97;5426073;26;20596;-64
2024/04/14 02:13:58;;;;;;;14.90;8.90;;;;;;;16.68;100.00;99262.47;5434619;26;20025;-65
2024/04/14 02:16:23;;;;;;;13.30;8.77;;;;;;;16.47;100.00;99256.94;5400427;26;20042;-64
2024/04/14 02:18:49;;;;;;;14.77;8.40;;;;;;;16.38;100.00;99253.50;5440171;26;20037;-64
2024/04/14 02:21:14;;;;;;;12.70;8.48;;;;;;;16.33;100.00;99266.28;5412447;26;20042;-64
2024/04/14 02:23:40;;;;;;;11.05;8.35;;;;;;;16.21;100.00;99265.81;5404349;26;20128;-64
2024/04/14 02:26:06;;;;;;;12.95;8.65;;;;;;;16.01;100.00;99260.09;5398893;26;20072;-64
2024/04/14 02:28:31;;;;;;;12.75;8.43;;;;;;;15.93;100.00;99255.66;5462967;26;20376;-64
2024/04/14 02:30:57;;;;;;;12.40;8.70;;;;;;;16.02;100.00;99253.84;5435447;26;19991;-64
2024/04/14 02:33:22;;;;;;;12.27;8.70;;;;;;;15.87;100.00;99253.69;5405675;26;19995;-64
2024/04/14 02:36:01;;;;;;;12.15;8.70;;;;;;;15.82;100.00;99253.34;5442490;26;20437;-64
2024/04/14 02:38:27;;;;;;;12.18;8.70;;;;;;;15.74;100.00;99240.25;5431511;26;20011;-64
2024/04/14 02:41:00;;;;;;;15.18;8.77;;;;;;;15.73;100.00;99247.25;5434092;26;20014;-64
2024/04/14 02:43:26;;;;;;;13.73;8.15;;;;;;;15.79;100.00;99248.44;5404174;26;20003;-64
2024/04/14 02:45:52;;;;;;;14.20;8.63;;;;;;;15.83;100.00;99234.00;5430999;26;19994;-64
2024/04/14 02:48:18;;;;;;;12.32;8.65;;;;;;;15.34;100.00;99174.47;5398887;26;20445;-64
2024/04/14 02:50:45;;;;;;;12.80;8.50;;;;;;;15.62;100.00;99244.13;5440750;26;20023;-64
2024/04/14 02:53:11;;;;;;;14.63;10.02;;;;;;;15.26;100.00;99197.19;5423053;26;20003;-64
2024/04/14 02:55:37;;;;;;;11.60;8.70;;;;;;;15.30;100.00;99232.59;5402184;26;20046;-64
2024/04/14 02:58:03;;;;;;;12.88;8.48;;;;;;;15.02;100.00;99190.09;5407901;26;20010;-64
2024/04/14 03:00:28;;;;;;;15.50;8.93;;;;;;;15.25;100.00;99234.88;5433385;26;20026;-64
2024/04/14 03:02:54;;;;;;;11.30;8.15;;;;;;;15.18;100.00;99235.50;5413265;26;20713;-64
2024/04/14 03:05:20;;;;;;;10.50;8.45;;;;;;;14.91;100.00;99209.53;5425763;26;20563;-64
2024/04/14 03:07:45;;;;;;;12.75;8.45;;;;;;;14.73;100.00;99202.63;5410344;26;20024;-63
2024/04/14 03:10:10;;;;;;;12.63;9.15;;;;;;;14.71;100.00;99243.84;5404691;26;20420;-64
2024/04/14 03:12:36;;;;;;;10.48;8.30;;;;;;;14.70;100.00;99233.50;5406729;26;19999;-64
2024/04/14 03:15:01;;;;;;;13.60;9.05;;;;;;;14.93;100.00;99239.00;5434163;26;21104;-64
2024/04/14 03:17:27;;;;;;;10.82;8.43;;;;;;;14.78;100.00;99196.88;5433520;26;20536;-64
2024/04/14 03:19:55;;;;;;;13.52;8.45;;;;;;;14.95;100.00;99224.78;5434536;26;20461;-64
2024/04/14 03:22:23;;;;;;;15.48;8.98;;;;;;;14.95;100.00;99229.22;5420072;26;20063;-64
2024/04/14 03:24:48;;;;;;;13.43;8.57;;;;;;;14.96;100.00;99226.41;5506435;25;19995;-65
2024/04/14 03:27:14;;;;;;;11.88;8.05;;;;;;;14.64;100.00;99192.25;5440836;26;20017;-65
2024/04/14 03:29:42;;;;;;;12.13;8.82;;;;;;;14.86;100.00;99230.97;5434306;26;20029;-64
2024/04/14 03:32:08;;;;;;;10.05;8.30;;;;;;;14.88;100.00;99234.25;5409220;26;20132;-64
2024/04/14 03:34:34;;;;;;;12.00;8.35;;;;;;;15.01;100.00;99225.16;5441221;26;20003;-64
2024/04/14 03:37:02;;;;;;;11.68;8.18;;;;;;;15.19;100.00;99228.47;5399842;26;20663;-64
2024/04/14 03:39:28;;;;;;;12.88;8.68;;;;;;;15.31;100.00;99232.41;5431666;26;19998;-65
2024/04/14 03:41:55;;;;;;;10.52;7.90;;;;;;;15.29;100.00;99223.09;5430396;26;20016;-65
2024/04/14 03:44:20;;;;;;;14.38;8.15;;;;;;;15.12;100.00;99227.47;5429717;26;20003;-65
2024/04/14 03:46:46;;;;;;;13.38;8.50;;;;;;;14.93;100.00;99211.03;5421616;26;20283;-64
2024/04/14 03:49:11;;;;;;;15.55;8.52;;;;;;;15.16;100.00;99229.59;5436601;26;19990;-64
2024/04/14 03:51:37;;;;;;;14.32;8.30;;;;;;;15.22;100.00;99235.19;5431297;26;20567;-64
2024/04/14 03:54:02;;;;;;;11.32;7.82;;;;;;;15.03;100.00;99228.41;5428872;26;19998;-64
2024/04/14 03:56:28;;;;;;;13.18;7.80;;;;;;;15.09;100.00;99222.53;5446026;26;20087;-65
2024/04/14 03:58:53;;;;;;;12.35;8.23;;;;;;;15.68;100.00;99223.34;5421066;26;20361;-65
2024/04/14 04:01:21;;;;;;;12.13;8.13;;;;;;;15.72;100.00;99231.69;5403370;26;20021;-65
2024/04/14 04:03:46;;;;;;;9.50;7.80;;;;;;;15.45;100.00;99190.88;5434006;26;20003;-65
2024/04/14 04:06:12;;;;;;;14.45;8.23;;;;;;;15.09;100.00;99220.72;5439078;26;20132;-65
2024/04/14 04:08:37;;;;;;;11.40;8.43;;;;;;;15.08;100.00;99226.16;5424275;26;21420;-64
2024/04/14 04:11:05;;;;;;;11.70;8.48;;;;;;;14.89;100.00;99219.34;5433889;26;19999;-64
2024/04/14 04:13:31;;;;;;;12.60;8.23;;;;;;;14.75;100.00;99189.38;5486485;25;20002;-65
2024/04/14 04:16:04;;;;;;;14.48;8.80;;;;;;;14.88;100.00;99194.97;5421420;26;20002;-64
2024/04/14 04:18:30;;;;;;;11.18;8.35;;;;;;;15.05;100.00;99226.47;5422045;26;20083;-64
2024/04/14 04:20:57;;;;;;;13.10;8.73;;;;;;;14.85;100.00;99224.09;5406393;26;20005;-64
2024/04/14 04:23:29;;;;;;;14.15;8.05;;;;;;;14.55;100.00;99231.44;5401285;26;20025;-64
2024/04/14 04:25:56;;;;;;;12.40;8.75;;;;;;;14.54;100.00;99237.63;5464911;26;20494;-64
2024/04/14 04:28:22;;;;;;;12.18;8.40;;;;;;;14.89;100.00;99229.81;5392798;26;20003;-65
2024/04/14 04:30:48;;;;;;;10.65;7.88;;;;;;;14.94;100.00;99227.56;5463775;26;19995;-64
2024/04/14 04:33:15;;;;;;;12.25;7.90;;;;;;;14.99;100.00;99231.34;5426527;26;20017;-64
2024/04/14 04:36:04;;;;;;;10.80;7.93;;;;;;;14.90;100.00;99234.91;5435346;26;20442;-64
2024/04/14 04:38:30;;;;;;;12.57;8.10;;;;;;;14.72;100.00;99234.97;5458577;26;20002;-63
2024/04/14 04:40:57;;;;;;;12.73;7.80;;;;;;;14.75;100.00;99221.59;5428529;26;20281;-64
2024/04/14 04:43:26;;;;;;;11.38;8.45;;;;;;;14.62;100.00;99195.03;5397476;26;19998;-64
2024/04/14 04:45:51;;;;;;;12.85;7.88;;;;;;;14.95;100.00;99239.69;5433456;26;20013;-64
2024/04/14 04:48:17;;;;;;;12.80;7.80;;;;;;;14.87;100.00;99235.22;5424527;26;20784;-62
2024/04/14 04:50:48;;;;;;;11.45;8.00;;;;;;;14.61;100.00;99190.78;5395009;26;19998;-64
2024/04/14 04:53:16;;;;;;;10.48;7.82;;;;;;;14.68;100.00;99202.25;5400769;26;20468;-64
2024/04/14 04:55:44;;;;;;;11.80;7.93;;;;;;;14.41;100.00;99196.19;5397111;26;20340;-64
2024/04/14 04:58:09;;;;;;;13.90;7.72;;;;;;;14.56;100.00;99227.81;5430824;26;20049;-64
2024/04/14 05:00:37;;;;;;;11.55;7.72;;;;;;;14.63;100.00;99228.06;5412259;26;20035;-63
2024/04/14 05:03:03;;;;;;;10.95;7.55;;;;;;;14.46;100.00;99224.53;5423908;26;20067;-63
2024/04/14 05:05:29;;;;;;;11.80;8.07;;;;;;;14.13;100.00;99181.66;5441200;26;19994;-64
2024/04/14 05:07:56;;;;;;;11.90;7.85;;;;;;;14.43;100.00;99222.19;5414032;26;20442;-64
2024/04/14 05:10:24;;;;;;;12.23;8.18;;;;;;;14.46;100.00;99223.72;5424316;26;20018;-63
2024/04/14 05:12:52;;;;;;;11.70;8.07;;;;;;;14.62;100.00;99223.84;5434706;26;20027;-64
2024/04/14 05:15:17;;;;;;;10.23;7.68;;;;;;;14.81;100.00;99222.75;5423755;26;20059;-64
2024/04/14 05:17:43;;;;;;;12.55;7.82;;;;;;;14.80;100.00;99221.09;5448713;26;20045;-64
2024/04/14 05:20:09;;;;;;;11.82;7.43;;;;;;;14.66;100.00;99195.53;5409392;26;20357;-65
2024/04/14 05:22:35;;;;;;;10.90;7.45;;;;;;;14.99;100.00;99220.88;5439830;26;19998;-64
2024/04/14 05:25:01;;;;;;;10.55;7.32;;;;;;;14.95;100.00;99221.34;5428813;26;20013;-64
2024/04/14 05:27:28;;;;;;;13.60;7.43;;;;;;;14.57;100.00;99205.13;5439622;26;20087;-65
2024/04/14 05:29:54;;;;;;;13.27;7.53;;;;;;;14.77;100.00;99222.25;5426318;26;20017;-64
2024/04/14 05:32:19;;;;;;;10.88;7.70;;;;;;;14.71;100.00;99229.91;5400480;26;20063;-64
2024/04/14 05:34:45;;;;;;;10.20;7.00;;;;;;;14.63;100.00;99216.78;5399629;26;20002;-64
2024/04/14 05:37:12;;;;;;;10.30;6.97;;;;;;;14.63;100.00;99242.97;5425253;26;20874;-64
2024/04/14 05:39:40;;;;;;;10.88;7.05;;;;;;;14.54;100.00;99240.25;5434524;26;20074;-64
2024/04/14 05:42:05;;;;;;;14.82;6.82;;;;;;;14.55;100.00;99243.72;5436635;26;20014;-64
2024/04/14 05:44:37;;;;;;;11.90;6.82;;;;;;;14.48;100.00;99234.84;5429135;26;20026;-64
2024/04/14 05:47:03;;;;;;;11.68;6.93;;;;;;;14.54;100.00;99236.81;5441540;26;20010;-64
2024/04/14 05:49:28;;;;;;;11.60;7.50;;;;;;;14.56;100.00;99233.06;5398874;26;20109;-65
2024/04/14 05:51:54;;;;;;;11.18;7.13;;;;;;;14.74;100.00;99234.84;5429368;26;20007;-64
2024/04/14 05:54:19;;;;;;;11.57;7.22;;;;;;;14.55;100.00;99209.69;5434319;26;20009;-65
2024/04/14 05:56:44;;;;;;;10.93;6.70;;;;;;;14.77;100.00;99237.97;5426543;26;20563;-65
2024/04/14 05:59:12;;;;;;;10.73;6.72;;;;;;;14.80;100.00;99239.44;5416014;26;20075;-65
2024/04/14 06:01:37;;;;;;;10.45;6.95;;;;;;;14.80;100.00;99237.66;5400738;26;20071;-64
2024/04/14 06:04:03;;;;;;;10.48;6.82;;;;;;;14.87;100.00;99232.59;5393186;26;20736;-64
2024/04/14 06:06:31;;;;;;;9.07;6.63;;;;;;;14.88;100.00;99236.88;5425188;26;20007;-64
2024/04/14 06:08:57;;;;;;;10.15;6.35;;;;;;;14.93;100.00;99233.75;5395316;26;22131;-64
2024/04/14 06:11:22;;;;;;;12.23;6.95;;;;;;;14.95;100.00;99237.88;5420285;26;19995;-65
2024/04/14 06:13:47;;;;;;;9.68;6.75;;;;;;;14.95;100.00;99243.13;5429567;26;20091;-65
2024/04/14 06:16:15;;;;;;;12.13;6.75;;;;;;;14.82;100.00;99231.44;5403328;26;20840;-65
2024/04/14 06:18:40;;;;;;;11.25;6.45;;;;;;;14.88;100.00;99236.88;5425617;26;19998;-65
2024/04/14 06:21:06;;;;;;;11.02;6.95;;;;;;;14.80;100.00;99242.06;5433994;26;20007;-65
2024/04/14 06:23:32;;;;;;;9.85;6.95;;;;;;;14.86;100.00;99244.06;5434014;26;20017;-65
2024/04/14 06:25:57;;;;;;;12.05;6.45;;;;;;;14.78;100.00;99244.00;5397328;26;20015;-65
2024/04/14 06:28:25;;;;;;;11.20;6.55;;;;;;;14.83;100.00;99251.41;5424901;26;20083;-64
2024/04/14 06:30:50;;;;;;;10.32;6.32;;;;;;;14.99;100.00;99251.47;5397043;26;20841;-64
2024/04/14 06:33:16;;;;;;;9.32;5.97;;;;;;;14.87;100.00;99244.88;5400388;26;20093;-63
2024/04/14 06:35:44;;;;;;;10.90;5.95;;;;;;;14.93;100.00;99231.16;5398945;26;20080;-65
2024/04/14 06:38:11;;;;;;;9.30;6.30;;;;;;;14.94;100.00;99230.19;5428615;26;20406;-66
2024/04/14 06:40:41;;;;;;;10.82;6.63;;;;;;;14.93;100.00;99237.22;5402115;26;20010;-65
2024/04/14 06:43:06;;;;;;;11.63;7.05;;;;;;;14.79;100.00;99232.56;5392013;26;20021;-65
2024/04/14 06:45:32;;;;;;;11.63;7.45;;;;;;;14.65;100.00;99236.59;5428543;26;20006;-66
2024/04/14 06:47:57;;;;;;;11.27;7.18;;;;;;;14.72;100.00;99229.75;5401358;26;19999;-65
2024/04/14 06:50:23;;;;;;;9.00;7.13;;;;;;;14.85;100.00;99229.31;5431349;26;20457;-65
2024/04/14 06:52:48;;;;;;;11.55;7.07;;;;;;;14.54;100.00;99181.88;5429827;26;19998;-65
2024/04/14 06:55:15;;;;;;;11.50;7.65;;;;;;;14.97;100.00;99227.25;5398632;26;20008;-65
2024/04/14 06:57:43;;;;;;;10.02;7.43;;;;;;;14.92;100.00;99190.25;5419336;26;20509;-65
2024/04/14 07:00:09;;;;;;;9.63;7.47;;;;;;;15.18;100.00;99216.34;5394977;26;20003;-66
2024/04/14 07:02:36;;;;;;;12.27;6.93;;;;;;;15.08;100.00;99215.69;5429017;26;19998;-65
2024/04/14 07:05:02;;;;;;;9.50;7.22;;;;;;;14.97;100.00;99198.44;5461188;26;20103;-65
2024/04/14 07:07:28;;;;;;;8.68;6.85;;;;;;;15.22;100.00;99211.59;5426719;26;19994;-65
2024/04/14 07:09:54;;;;;;;11.10;7.35;;;;;;;15.11;100.00;99215.34;5437615;26;20521;-65
2024/04/14 07:12:19;;;;;;;9.15;6.97;;;;;;;15.21;100.00;99217.84;5405474;26;19999;-65
2024/04/14 07:14:45;;;;;;;10.13;7.35;;;;;;;15.03;100.00;99187.34;5398568;26;20010;-66
2024/04/14 07:17:10;;;;;;;10.32;7.43;;;;;;;15.32;100.00;99215.72;5392497;26;20005;-66
2024/04/14 07:19:36;;;;;;;10.68;6.80;;;;;;;15.27;100.00;99207.53;5442096;26;20004;-64
2024/04/14 07:22:02;;;;;;;11.38;6.82;;;;;;;15.40;100.00;99201.00;5441399;26;19998;-65
2024/04/14 07:24:27;;;;;;;11.40;7.20;;;;;;;15.47;100.00;99208.06;5404533;26;20014;-66
2024/04/14 07:26:53;;;;;;;11.60;7.88;;;;;;;15.35;100.00;99176.13;5434709;26;20011;-65
2024/04/14 07:29:18;;;;;;;11.27;7.78;;;;;;;15.49;100.00;99203.47;5440877;26;20035;-65
2024/04/14 07:31:46;;;;;;;11.82;7.13;;;;;;;15.56;100.00;99212.31;5409126;26;20066;-65
2024/04/14 07:34:11;;;;;;;11.63;7.10;;;;;;;15.58;100.00;99204.31;5424370;26;20024;-65
2024/04/14 07:36:39;;;;;;;12.43;6.97;;;;;;;15.51;100.00;99211.16;5434089;26;20454;-65
2024/04/14 07:39:04;;;;;;;12.45;7.10;;;;;;;15.48;100.00;99203.63;5438723;26;20085;-65
2024/04/14 07:41:32;;;;;;;12.15;7.43;;;;;;;15.37;100.00;99199.53;5443845;26;20065;-65
2024/04/14 07:43:57;;;;;;;12.73;7.03;;;;;;;15.49;100.00;99210.53;5428202;26;20568;-66
2024/04/14 07:46:27;;;;;;;11.30;6.13;;;;;;;15.57;100.00;99218.41;5395780;26;20015;-66
2024/04/14 07:48:57;;;;;;;9.75;6.63;;;;;;;15.57;100.00;99210.53;5418932;26;20812;-65
2024/04/14 07:51:23;;;;;;;11.18;7.50;;;;;;;15.38;100.00;99174.97;5428707;26;20003;-66
2024/04/14 07:53:51;;;;;;;10.93;7.28;;;;;;;15.47;100.00;99174.00;5425180;26;20003;-65
2024/04/14 07:56:16;;;;;;;12.00;6.65;;;;;;;15.63;100.00;99206.44;5406645;26;20002;-65
2024/04/14 07:58:42;;;;;;;13.82;6.95;;;;;;;15.69;100.00;99208.41;5433633;26;20444;-65
2024/04/14 08:01:07;;;;;;;10.43;6.68;;;;;;;15.68;100.00;99207.59;5433891;26;20018;-65
2024/04/14 08:03:33;;;;;;;9.95;6.43;;;;;;;15.67;100.00;99200.72;5460667;26;20700;-65
2024/04/14 08:05:58;;;;;;;10.23;6.85;;;;;;;15.62;100.00;99186.44;5427963;26;19992;-64
2024/04/14 08:08:23;;;;;;;11.70;6.68;;;;;;;15.82;100.00;99200.91;5429798;26;19999;-65
2024/04/14 08:10:49;;;;;;;9.55;6.20;;;;;;;15.83;100.00;99202.56;5399526;26;20342;-65
2024/04/14 08:13:14;;;;;;;9.25;6.88;;;;;;;15.84;100.00;99203.38;5417646;26;21681;-65
2024/04/14 08:15:40;;;;;;;8.77;6.15;;;;;;;15.85;100.00;99203.19;5399247;26;20110;-65
2024/04/14 08:18:06;;;;;;;11.13;6.40;;;;;;;15.66;100.00;99170.25;5398034;26;19999;-65
2024/04/14 08:20:31;;;;;;;9.23;6.13;;;;;;;15.90;100.00;99205.34;5414597;26;20002;-65
2024/04/14 08:22:59;;;;;;;10.57;6.10;;;;;;;15.75;100.00;99166.66;5431044;26;20764;-64
2024/04/14 08:25:27;;;;;;;9.45;5.82;;;;;;;16.04;100.00;99195.97;5402675;26;20013;-65
2024/04/14 08:27:52;;;;;;;9.98;5.45;;;;;;;15.99;100.00;99183.38;5409430;26;20732;-65
2024/04/14 08:30:21;;;;;;;10.32;5.80;;;;;;;15.87;100.00;99159.28;5438149;26;20098;-64
2024/04/14 08:32:46;;;;;;;10.27;6.32;;;;;;;16.30;100.00;99193.13;5435097;26;20801;-65
2024/04/14 08:35:11;;;;;;;11.43;5.97;;;;;;;18.48;100.00;99195.75;5426620;26;20702;-65
2024/04/14 08:37:39;;;;;;;8.85;4.40;;;;;;;20.86;98.27;99189.44;5429790;26;20010;-64
2024/04/14 08:40:08;;;;;;;7.70;4.00;;;;;;;22.38;85.96;99185.38;5424295;26;19999;-65
2024/04/14 08:42:33;;;;;;;8.77;4.03;;;;;;;23.10;78.73;99179.22;5417984;26;20686;-65
2024/04/14 08:45:02;;;;;;;9.57;3.75;;;;;;;23.42;73.05;99185.34;5426767;26;20001;-65
2024/04/14 08:47:28;;;;;;;7.00;3.30;;;;;;;23.24;66.94;99156.88;5425846;26;20006;-65
2024/04/14 08:49:55;;;;;;;8.88;3.65;;;;;;;23.09;67.34;99186.34;5425797;26;20216;-65
2024/04/14 08:52:22;;;;;;;7.30;3.35;;;;;;;22.17;71.11;99194.31;5424310;26;20037;-65
2024/04/14 08:54:50;;;;;;;8.02;2.80;;;;;;;20.42;75.63;99175.56;5428005;26;20006;-65
2024/04/14 08:57:15;;;;;;;8.27;3.00;;;;;;;19.71;79.76;99191.47;5427822;26;20007;-65
2024/04/14 08:59:44;;;;;;;8.05;3.50;;;;;;;19.38;83.62;99186.72;5436178;26;20555;-65
2024/04/14 09:02:10;;;;;;;8.03;4.50;;;;;;;19.04;87.05;99179.44;5401288;26;20014;-65
2024/04/14 09:04:36;;;;;;;9.95;4.65;;;;;;;19.15;87.36;99176.34;5402427;26;19994;-65
2024/04/14 09:07:01;;;;;;;8.40;4.18;;;;;;;18.99;85.94;99149.22;5422281;26;20076;-65
2024/04/14 09:09:27;;;;;;;7.70;4.40;;;;;;;19.19;86.96;99177.59;5417168;26;20134;-64
2024/04/14 09:11:53;;;;;;;7.57;4.30;;;;;;;19.30;86.62;99174.47;5425764;26;20891;-64
2024/04/14 09:14:19;;;;;;;9.15;5.50;;;;;;;19.32;86.22;99159.28;5428269;26;20008;-64
2024/04/14 09:16:48;;;;;;;7.90;5.00;;;;;;;19.24;84.81;99158.56;5433400;26;20002;-64
2024/04/14 09:19:14;;;;;;;7.63;4.00;;;;;;;19.36;83.77;99160.53;5424483;26;20002;-64
2024/04/14 09:21:42;;;;;;;13.07;4.55;;;;;;;19.44;82.98;99161.41;5401791;26;20011;-65
2024/04/14 09:24:08;;;;;;;9.07;4.37;;;;;;;19.52;82.38;99161.28;5448990;26;20122;-64
2024/04/14 09:26:36;;;;;;;7.90;4.80;;;;;;;19.57;81.19;99148.38;5428878;26;20062;-64
2024/04/14 09:29:09;;;;;;;11.88;6.57;;;;;;;19.76;80.45;99152.19;5425658;26;19999;-64
2024/04/14 09:31:35;;;;;;;7.85;4.95;;;;;;;19.84;79.83;99143.31;5436772;26;20031;-64
2024/04/14 09:34:03;;;;;;;9.10;4.68;;;;;;;20.13;76.59;99150.22;5400388;26;20013;-64
2024/04/14 09:36:29;;;;;;;7.57;3.65;;;;;;;20.21;76.65;99142.16;5454031;26;20075;-64
2024/04/14 09:38:55;;;;;;;8.85;4.80;;;;;;;20.43;75.83;99140.25;5426774;26;20014;-65
2024/04/14 09:41:22;;;;;;;8.30;3.47;;;;;;;20.52;74.42;99140.91;5400942;26;20643;-64
2024/04/14 09:43:54;;;;;;;8.80;3.40;;;;;;;20.64;72.72;99133.25;5402933;26;20010;-64
2024/04/14 09:46:21;;;;;;;6.97;3.10;;;;;;;20.56;72.57;99128.91;5430773;26;20010;-64
2024/04/14 09:48:49;;;;;;;11.73;3.22;;;;;;;20.47;75.11;99130.09;5394604;26;20007;-64
2024/04/14 09:51:15;;;;;;;7.13;3.50;;;;;;;20.31;76.06;99103.00;5436625;26;20511;-64
2024/04/14 09:53:44;;;;;;;7.95;3.53;;;;;;;20.46;77.42;99118.72;5452584;26;20003;-64
2024/04/14 09:56:10;;;;;;;7.38;3.75;;;;;;;20.63;78.41;99123.72;5402029;26;20080;-64
2024/04/14 09:58:38;;;;;;;7.65;3.40;;;;;;;20.62;78.15;99120.22;5423214;26;20015;-64
2024/04/14 10:01:10;;;;;;;7.85;3.72;;;;;;;20.70;77.27;99127.19;5428434;26;20006;-64
2024/04/14 10:03:39;;;;;;;6.97;3.47;;;;;;;21.11;72.31;99121.78;5423419;26;21483;-64
2024/04/14 10:06:06;;;;;;;7.82;3.13;;;;;;;21.33;70.91;99118.97;5383478;26;20041;-64
2024/04/14 10:08:33;;;;;;;6.85;3.00;;;;;;;21.19;70.50;99089.09;5427096;26;20103;-65
2024/04/14 10:11:02;;;;;;;6.95;3.00;;;;;;;21.31;70.69;99108.59;5420814;26;20126;-65
2024/04/14 10:13:28;;;;;;;6.97;3.03;;;;;;;21.38;71.74;99108.63;5426330;26;20014;-65
2024/04/14 10:15:58;;;;;;;8.55;3.13;;;;;;;21.60;68.54;99111.91;5417977;26;20027;-65
2024/04/14 10:18:28;;;;;;;8.52;3.83;;;;;;;21.66;71.81;99115.56;5419391;26;20037;-65
2024/04/14 10:21:01;;;;;;;8.80;4.15;;;;;;;20.91;72.86;99076.00;5397946;26;20030;-65
2024/04/14 10:23:26;;;;;;;8.60;3.63;;;;;;;21.04;71.95;99075.22;5478811;25;19998;-65
2024/04/14 10:25:52;;;;;;;7.78;3.63;;;;;;;21.30;71.45;99101.69;5419475;26;20365;-66
2024/04/14 10:28:19;;;;;;;10.35;3.53;;;;;;;21.72;66.94;99096.22;5379215;26;19994;-64
2024/04/14 10:30:45;;;;;;;9.93;3.45;;;;;;;21.93;65.40;99084.59;5393586;26;19999;-65
2024/04/14 10:33:21;;;;;;;6.95;3.50;;;;;;;22.11;64.80;99085.78;5391571;26;19999;-64
2024/04/14 10:36:04;;;;;;;9.00;3.53;;;;;;;22.51;63.57;99083.81;5393100;26;20007;-65
2024/04/14 10:38:34;;;;;;;7.10;3.92;;;;;;;22.48;62.78;99078.94;5426678;26;20058;-63
2024/04/14 10:41:00;;;;;;;8.18;3.28;;;;;;;22.62;63.75;99069.91;5400626;26;19995;-63
2024/04/14 10:43:26;;;;;;;9.95;3.50;;;;;;;22.56;62.61;99072.59;5434669;26;19999;-63
2024/04/14 10:45:52;;;;;;;8.10;3.33;;;;;;;22.65;62.62;99066.00;5400999;26;20010;-63
2024/04/14 10:48:18;;;;;;;9.18;3.33;;;;;;;22.77;62.37;99071.47;5441418;26;20027;-64
2024/04/14 10:50:47;;;;;;;10.27;3.88;;;;;;;22.83;62.03;99067.94;5401123;26;19998;-64
2024/04/14 10:53:14;;;;;;;8.40;3.33;;;;;;;22.83;62.07;99057.34;5419631;26;20002;-64
2024/04/14 10:55:42;;;;;;;8.25;4.22;;;;;;;22.86;62.67;99048.19;5432011;26;19999;-64
2024/04/14 10:58:07;;;;;;;7.72;3.45;;;;;;;22.90;62.79;99049.38;5395864;26;20022;-64
2024/04/14 11:00:33;;;;;;;10.63;3.65;;;;;;;23.00;62.64;99052.38;5439229;26;20003;-64
2024/04/14 11:03:00;;;;;;;9.40;3.90;;;;;;;23.04;62.48;99048.28;5423694;26;20597;-64
2024/04/14 11:05:26;;;;;;;7.15;3.35;;;;;;;23.05;62.73;99047.22;5413828;26;20013;-63
2024/04/14 11:07:57;;;;;;;9.25;3.70;;;;;;;23.03;61.89;99017.44;5457511;26;20003;-64
2024/04/14 11:10:23;;;;;;;9.50;3.45;;;;;;;23.12;61.04;99044.53;5424622;26;20032;-63
2024/04/14 11:12:51;;;;;;;7.55;4.07;;;;;;;23.17;61.95;99032.25;5401250;26;20419;-64
2024/04/14 11:15:17;;;;;;;11.20;3.90;;;;;;;23.20;61.38;99031.00;5429678;26;20002;-63
2024/04/14 11:17:46;;;;;;;9.98;3.55;;;;;;;23.46;61.15;99029.19;5426504;26;19999;-63
2024/04/14 11:20:15;;;;;;;7.47;3.42;;;;;;;23.44;60.70;99020.59;5420039;26;20009;-64